Time;durP1;ratioP1;P1;durP2;ratioP2;P2;SDS_P1;SDS_P2;PMS_P1;PMS_P2;Temp;Humidity;BMP_temperature;BMP_pressure;BME280_temperature;BME280_humidity;BME280_pressure;Samples;Min_cycle;Max_cycle;Signal;HPM_P1;HPM_P2
2022/03/28 00:02:02;;;;;;;59.22;52.97;;;;;;;;;;5016870;28;20022;-49
2022/03/28 00:04:27;;;;;;;41.55;37.63;;;;;;;;;;5007633;28;20034;-51
2022/03/28 00:06:52;;;;;;;54.77;49.33;;;;;;;;;;5008164;28;20026;-51
2022/03/28 00:09:17;;;;;;;36.17;33.07;;;;;;;;;;5007542;28;20355;-50
2022/03/28 00:11:43;;;;;;;26.20;23.90;;;;;;;;;;5004410;28;20026;-50
2022/03/28 00:14:08;;;;;;;42.70;38.53;;;;;;;;;;4986528;28;20699;-50
2022/03/28 00:16:33;;;;;;;30.40;27.63;;;;;;;;;;5003674;28;20628;-51
2022/03/28 00:18:58;;;;;;;36.97;33.67;;;;;;;;;;5002953;28;20477;-50
2022/03/28 00:21:25;;;;;;;40.47;36.83;;;;;;;;;;4984676;28;20997;-49
2022/03/28 00:23:51;;;;;;;42.63;38.63;;;;;;;;;;4984472;28;20744;-49
2022/03/28 00:26:16;;;;;;;33.22;30.38;;;;;;;;;;4984050;28;20038;-49
2022/03/28 00:28:41;;;;;;;37.67;34.30;;;;;;;;;;4983852;28;20034;-49
2022/03/28 00:31:07;;;;;;;47.20;42.50;;;;;;;;;;4984320;28;20312;-50
2022/03/28 00:33:32;;;;;;;39.45;35.90;;;;;;;;;;5003707;28;20278;-51
2022/03/28 00:35:57;;;;;;;38.75;35.00;;;;;;;;;;5003653;28;20116;-48
2022/03/28 00:38:22;;;;;;;37.53;34.10;;;;;;;;;;5003584;28;20509;-49
2022/03/28 00:40:48;;;;;;;15.63;14.03;;;;;;;;;;4988524;28;20638;-49
2022/03/28 00:43:13;;;;;;;15.80;14.38;;;;;;;;;;4984577;28;20364;-49
2022/03/28 00:45:39;;;;;;;15.30;13.70;;;;;;;;;;4984619;28;20026;-49
2022/03/28 00:48:05;;;;;;;15.57;12.50;;;;;;;;;;4984588;28;20358;-49
2022/03/28 00:50:30;;;;;;;14.70;13.23;;;;;;;;;;4984552;28;20120;-50
2022/03/28 00:52:56;;;;;;;19.25;17.42;;;;;;;;;;4983491;28;20034;-50
2022/03/28 00:55:21;;;;;;;21.70;19.58;;;;;;;;;;4967251;28;20022;-50
2022/03/28 00:57:46;;;;;;;16.83;15.07;;;;;;;;;;4984417;28;20461;-50
2022/03/28 01:00:12;;;;;;;21.80;19.80;;;;;;;;;;4984624;28;20037;-49
2022/03/28 01:02:37;;;;;;;22.00;20.00;;;;;;;;;;4984287;28;20527;-50
2022/03/28 01:05:03;;;;;;;31.48;28.63;;;;;;;;;;4966948;28;20034;-49
2022/03/28 01:07:28;;;;;;;44.85;40.45;;;;;;;;;;4987670;28;20045;-49
2022/03/28 01:09:55;;;;;;;53.13;47.72;;;;;;;;;;5003780;28;20037;-50
2022/03/28 01:12:22;;;;;;;55.47;49.85;;;;;;;;;;4995382;28;20037;-49
2022/03/28 01:14:47;;;;;;;36.70;33.13;;;;;;;;;;5003589;28;20621;-49
2022/03/28 01:19:56;;;;;;;54.08;48.33;;;;;;;;;;5004444;28;20283;-49
2022/03/28 01:22:21;;;;;;;35.53;32.07;;;;;;;;;;5011515;28;20026;-50
2022/03/28 01:24:47;;;;;;;42.50;38.43;;;;;;;;;;5003512;28;20303;-50
2022/03/28 01:27:12;;;;;;;47.72;43.00;;;;;;;;;;5003380;28;20269;-50
2022/03/28 01:29:37;;;;;;;66.32;54.15;;;;;;;;;;5003605;28;20075;-49
2022/03/28 01:32:03;;;;;;;38.87;35.30;;;;;;;;;;5002426;28;20061;-50
2022/03/28 01:34:28;;;;;;;39.95;36.30;;;;;;;;;;5003236;28;20092;-50
2022/03/28 01:36:53;;;;;;;12.47;11.13;;;;;;;;;;5003529;28;20030;-49
2022/03/28 01:39:18;;;;;;;74.90;44.80;;;;;;;;;;5003046;28;20265;-49
2022/03/28 01:41:44;;;;;;;250.77;139.13;;;;;;;;;;5003409;28;20284;-51
2022/03/28 01:44:09;;;;;;;138.85;93.72;;;;;;;;;;5003602;28;20033;-51
2022/03/28 01:46:44;;;;;;;344.75;195.27;;;;;;;;;;5001973;28;20033;-51
2022/03/28 01:49:10;;;;;;;315.60;193.02;;;;;;;;;;5002360;28;20114;-51
2022/03/28 01:51:35;;;;;;;80.00;66.10;;;;;;;;;;4985524;28;20113;-51
2022/03/28 01:54:00;;;;;;;71.75;60.70;;;;;;;;;;5003328;28;20045;-50
2022/03/28 01:56:26;;;;;;;85.40;69.23;;;;;;;;;;5003092;28;20044;-50
2022/03/28 01:58:51;;;;;;;82.32;68.28;;;;;;;;;;5003322;28;20313;-51
2022/03/28 02:01:17;;;;;;;62.92;55.88;;;;;;;;;;5001843;28;20037;-51
2022/03/28 02:03:42;;;;;;;65.00;57.77;;;;;;;;;;5002192;28;20084;-51
2022/03/28 02:06:08;;;;;;;80.05;65.80;;;;;;;;;;5002864;28;20088;-50
2022/03/28 02:08:34;;;;;;;58.88;52.83;;;;;;;;;;5002426;28;20046;-51
2022/03/28 02:11:00;;;;;;;80.03;66.22;;;;;;;;;;5002430;28;20105;-49
2022/03/28 02:13:25;;;;;;;51.38;46.25;;;;;;;;;;5002896;28;20125;-51
2022/03/28 02:15:50;;;;;;;51.97;46.87;;;;;;;;;;5002468;28;20022;-51
2022/03/28 02:18:15;;;;;;;154.87;111.43;;;;;;;;;;5002851;28;20291;-51
2022/03/28 02:20:41;;;;;;;85.87;61.53;;;;;;;;;;5017110;28;20264;-50
2022/03/28 02:23:06;;;;;;;34.67;30.33;;;;;;;;;;5004152;28;20034;-51
2022/03/28 02:25:35;;;;;;;66.13;53.27;;;;;;;;;;5002859;28;20273;-52
2022/03/28 02:28:01;;;;;;;59.58;50.60;;;;;;;;;;5002259;28;20105;-50
2022/03/28 02:30:27;;;;;;;43.13;38.63;;;;;;;;;;5002257;28;20065;-51
2022/03/28 02:32:52;;;;;;;36.85;33.22;;;;;;;;;;5002548;28;20450;-50
2022/03/28 02:35:17;;;;;;;47.30;42.30;;;;;;;;;;5002106;28;20018;-50
2022/03/28 02:37:43;;;;;;;42.88;38.65;;;;;;;;;;5002539;28;20272;-50
2022/03/28 02:40:08;;;;;;;52.40;47.08;;;;;;;;;;5011994;28;20026;-50
2022/03/28 02:42:33;;;;;;;57.47;51.00;;;;;;;;;;5008884;28;20038;-50
2022/03/28 02:44:59;;;;;;;19.30;17.30;;;;;;;;;;5002408;28;20026;-51
2022/03/28 02:47:24;;;;;;;13.02;9.68;;;;;;;;;;5002364;28;20273;-50
2022/03/28 02:49:50;;;;;;;14.13;8.43;;;;;;;;;;5002270;28;20487;-49
2022/03/28 02:52:15;;;;;;;52.97;47.65;;;;;;;;;;5002282;28;20305;-51
2022/03/28 02:54:41;;;;;;;44.63;40.03;;;;;;;;;;5001932;28;20038;-51
2022/03/28 02:57:06;;;;;;;30.58;26.35;;;;;;;;;;5002244;28;20030;-50
2022/03/28 02:59:31;;;;;;;14.87;11.80;;;;;;;;;;5006871;28;20036;-50
2022/03/28 03:01:56;;;;;;;53.57;48.03;;;;;;;;;;5013955;28;20261;-50
2022/03/28 03:04:21;;;;;;;51.80;46.60;;;;;;;;;;4984602;28;20032;-50
2022/03/28 03:06:47;;;;;;;50.67;45.50;;;;;;;;;;5002130;28;20375;-50
2022/03/28 03:09:12;;;;;;;52.40;47.20;;;;;;;;;;5001861;28;20124;-51
2022/03/28 03:11:37;;;;;;;65.47;57.67;;;;;;;;;;5002323;28;20125;-51
2022/03/28 03:14:03;;;;;;;84.10;69.07;;;;;;;;;;5002381;28;20126;-50
2022/03/28 03:16:29;;;;;;;82.63;68.57;;;;;;;;;;5004687;28;20117;-50
2022/03/28 03:18:55;;;;;;;24.45;21.98;;;;;;;;;;5005821;28;20476;-51
2022/03/28 03:21:20;;;;;;;29.05;26.25;;;;;;;;;;5006072;28;20034;-51
2022/03/28 03:23:46;;;;;;;36.80;33.17;;;;;;;;;;5025714;28;20570;-51
2022/03/28 03:26:11;;;;;;;50.07;44.87;;;;;;;;;;5025394;28;20306;-51
2022/03/28 03:28:36;;;;;;;53.27;47.67;;;;;;;;;;5025661;28;20355;-50
2022/03/28 03:31:02;;;;;;;80.60;66.97;;;;;;;;;;5024818;28;20120;-50
2022/03/28 03:33:27;;;;;;;95.43;77.43;;;;;;;;;;5025597;28;20538;-51
2022/03/28 03:35:53;;;;;;;122.10;88.50;;;;;;;;;;5025385;28;20476;-51
2022/03/28 03:38:19;;;;;;;146.13;99.85;;;;;;;;;;5025427;28;20029;-50
2022/03/28 03:40:44;;;;;;;125.23;90.77;;;;;;;;;;5007592;28;20037;-51
2022/03/28 03:43:09;;;;;;;147.73;99.95;;;;;;;;;;5007328;28;20307;-50
2022/03/28 03:45:35;;;;;;;146.88;99.47;;;;;;;;;;5005025;28;20283;-50
2022/03/28 03:48:00;;;;;;;157.70;104.57;;;;;;;;;;5004184;28;20022;-50
2022/03/28 03:50:25;;;;;;;158.73;103.20;;;;;;;;;;5004997;28;20287;-50
2022/03/28 03:52:51;;;;;;;199.40;118.93;;;;;;;;;;5005407;28;20850;-50
2022/03/28 03:55:17;;;;;;;188.95;115.55;;;;;;;;;;5004979;28;20405;-50
2022/03/28 03:57:42;;;;;;;125.18;87.88;;;;;;;;;;5005098;28;20576;-51
2022/03/28 04:00:08;;;;;;;72.90;63.53;;;;;;;;;;5014712;28;20429;-50
2022/03/28 04:02:34;;;;;;;87.05;71.30;;;;;;;;;;5011801;28;20279;-50
2022/03/28 04:04:59;;;;;;;107.22;80.47;;;;;;;;;;5005105;28;20026;-51
2022/03/28 04:07:24;;;;;;;77.20;65.17;;;;;;;;;;5004939;28;20646;-49
2022/03/28 04:09:49;;;;;;;70.10;61.37;;;;;;;;;;5005124;28;20026;-50
2022/03/28 04:12:15;;;;;;;84.20;69.13;;;;;;;;;;5005192;28;20045;-50
2022/03/28 04:14:40;;;;;;;68.85;59.63;;;;;;;;;;5004984;28;20660;-50
2022/03/28 04:17:05;;;;;;;114.47;83.00;;;;;;;;;;4987221;28;20541;-50
2022/03/28 04:19:31;;;;;;;137.37;94.70;;;;;;;;;;5009404;28;20028;-50
2022/03/28 04:21:56;;;;;;;104.38;77.57;;;;;;;;;;5016844;28;20918;-50
2022/03/28 04:24:22;;;;;;;47.65;42.90;;;;;;;;;;5004987;28;20375;-50
2022/03/28 04:26:47;;;;;;;54.03;48.40;;;;;;;;;;5002137;28;20197;-52
2022/03/28 04:29:13;;;;;;;48.08;43.17;;;;;;;;;;5002281;28;20402;-53
2022/03/28 04:31:40;;;;;;;53.20;47.80;;;;;;;;;;5002877;28;20033;-50
2022/03/28 04:34:06;;;;;;;68.40;58.88;;;;;;;;;;5002572;28;20033;-51
2022/03/28 04:36:31;;;;;;;84.28;69.55;;;;;;;;;;5002379;28;20026;-52
2022/03/28 04:38:57;;;;;;;107.00;81.30;;;;;;;;;;5002586;28;20014;-52
2022/03/28 04:41:22;;;;;;;25.93;23.50;;;;;;;;;;5002218;28;20344;-53
2022/03/28 04:43:47;;;;;;;21.48;19.30;;;;;;;;;;5002533;28;20129;-52
2022/03/28 04:46:12;;;;;;;32.80;29.57;;;;;;;;;;5002564;28;20413;-52
2022/03/28 04:48:38;;;;;;;33.57;29.33;;;;;;;;;;5002446;28;20343;-52
2022/03/28 04:51:03;;;;;;;22.47;20.43;;;;;;;;;;5002442;28;20289;-52
2022/03/28 04:53:28;;;;;;;80.90;65.50;;;;;;;;;;5002454;28;20273;-52
2022/03/28 04:55:53;;;;;;;89.07;71.80;;;;;;;;;;5002231;28;20025;-52
2022/03/28 04:58:19;;;;;;;100.10;73.90;;;;;;;;;;5002332;28;20636;-52
2022/03/28 05:00:44;;;;;;;109.50;81.10;;;;;;;;;;5001870;28;20466;-52
2022/03/28 05:03:09;;;;;;;92.65;71.35;;;;;;;;;;5002264;28;20044;-51
2022/03/28 05:05:35;;;;;;;70.80;57.28;;;;;;;;;;5003408;28;20022;-51
2022/03/28 05:08:00;;;;;;;143.23;93.33;;;;;;;;;;5003519;28;20085;-51
2022/03/28 05:10:25;;;;;;;269.80;145.93;;;;;;;;;;5003234;28;20508;-52
2022/03/28 05:12:50;;;;;;;257.33;139.02;;;;;;;;;;5002581;28;20069;-52
2022/03/28 05:15:16;;;;;;;296.23;157.87;;;;;;;;;;5003293;28;20490;-52
2022/03/28 05:17:41;;;;;;;234.02;131.43;;;;;;;;;;5003598;28;20299;-51
2022/03/28 05:20:08;;;;;;;282.45;150.55;;;;;;;;;;5002958;28;20160;-52
2022/03/28 05:22:33;;;;;;;169.40;103.28;;;;;;;;;;5003426;28;20139;-52
2022/03/28 05:24:59;;;;;;;148.73;94.55;;;;;;;;;;5003504;28;20454;-51
2022/03/28 05:27:24;;;;;;;87.97;67.23;;;;;;;;;;5002894;28;20466;-51
2022/03/28 05:29:49;;;;;;;55.37;46.90;;;;;;;;;;5003240;28;20276;-51
2022/03/28 05:32:14;;;;;;;46.57;38.10;;;;;;;;;;5002586;28;20399;-51
2022/03/28 05:34:40;;;;;;;41.42;36.92;;;;;;;;;;5008548;28;20271;-51
2022/03/28 05:37:05;;;;;;;44.73;40.30;;;;;;;;;;5002030;28;20026;-51
2022/03/28 05:39:33;;;;;;;91.00;69.65;;;;;;;;;;5002911;28;20276;-51
2022/03/28 05:41:59;;;;;;;81.82;63.72;;;;;;;;;;4996925;28;20046;-51
2022/03/28 05:44:24;;;;;;;85.10;67.22;;;;;;;;;;4999793;28;20101;-52
2022/03/28 05:46:51;;;;;;;87.53;70.93;;;;;;;;;;5000429;28;20032;-51
2022/03/28 05:49:16;;;;;;;63.63;49.28;;;;;;;;;;4997325;28;20285;-52
2022/03/28 05:51:42;;;;;;;49.33;38.75;;;;;;;;;;5002260;28;20033;-51
2022/03/28 05:54:07;;;;;;;37.08;29.45;;;;;;;;;;5002617;28;20101;-51
2022/03/28 05:56:32;;;;;;;24.53;17.47;;;;;;;;;;5002772;28;20026;-51
2022/03/28 05:58:58;;;;;;;23.90;12.73;;;;;;;;;;5002545;28;20760;-50
2022/03/28 06:01:23;;;;;;;15.43;7.93;;;;;;;;;;5001872;28;20026;-51
2022/03/28 06:03:48;;;;;;;16.60;6.22;;;;;;;;;;4985581;28;20077;-51
2022/03/28 06:06:13;;;;;;;17.08;7.55;;;;;;;;;;5002583;28;20105;-51
2022/03/28 06:08:39;;;;;;;17.47;7.33;;;;;;;;;;5001342;28;20473;-52
2022/03/28 06:11:04;;;;;;;55.80;48.13;;;;;;;;;;5002463;28;20327;-51
2022/03/28 06:13:30;;;;;;;17.43;12.27;;;;;;;;;;5003159;28;20308;-51
2022/03/28 06:15:55;;;;;;;20.02;12.45;;;;;;;;;;5002956;28;20287;-52
2022/03/28 06:18:20;;;;;;;30.30;27.20;;;;;;;;;;4994169;28;20030;-52
2022/03/28 06:20:45;;;;;;;77.80;63.33;;;;;;;;;;5004140;28;20032;-53
2022/03/28 06:23:12;;;;;;;107.97;80.28;;;;;;;;;;5007360;28;20360;-52
2022/03/28 06:25:37;;;;;;;59.10;52.17;;;;;;;;;;5003658;28;20014;-52
2022/03/28 06:28:03;;;;;;;39.45;35.35;;;;;;;;;;5002529;28;20013;-52
2022/03/28 06:30:28;;;;;;;46.80;41.70;;;;;;;;;;4996600;28;20021;-52
2022/03/28 06:32:53;;;;;;;72.60;59.83;;;;;;;;;;5003615;28;20104;-53
2022/03/28 06:35:18;;;;;;;49.77;44.57;;;;;;;;;;5001233;28;20269;-52
2022/03/28 06:37:43;;;;;;;22.83;19.43;;;;;;;;;;5000813;28;20280;-52
2022/03/28 06:40:09;;;;;;;27.35;24.52;;;;;;;;;;5000811;28;20336;-52
2022/03/28 06:42:34;;;;;;;21.25;14.02;;;;;;;;;;5000752;28;20149;-51
2022/03/28 06:44:59;;;;;;;20.87;13.10;;;;;;;;;;5001098;28;20033;-51
2022/03/28 06:47:25;;;;;;;21.38;16.15;;;;;;;;;;5000740;28;20033;-51
2022/03/28 06:49:50;;;;;;;15.70;6.80;;;;;;;;;;4981663;28;20038;-51
2022/03/28 06:52:15;;;;;;;16.73;7.55;;;;;;;;;;5004304;28;20041;-53
2022/03/28 06:54:41;;;;;;;15.30;7.03;;;;;;;;;;5002810;28;20030;-52
2022/03/28 06:57:06;;;;;;;17.70;7.00;;;;;;;;;;5004197;28;20016;-52
2022/03/28 06:59:31;;;;;;;13.17;6.30;;;;;;;;;;4987076;28;20021;-51
2022/03/28 07:01:57;;;;;;;22.53;14.87;;;;;;;;;;5004526;28;20280;-50
2022/03/28 07:04:22;;;;;;;20.52;10.30;;;;;;;;;;5004328;28;20018;-50
2022/03/28 07:06:48;;;;;;;15.93;7.88;;;;;;;;;;5004532;28;20030;-48
2022/03/28 07:09:13;;;;;;;18.95;6.72;;;;;;;;;;5003292;28;20518;-51
2022/03/28 07:11:38;;;;;;;15.53;7.10;;;;;;;;;;5004678;28;20571;-51
2022/03/28 07:14:04;;;;;;;20.57;13.50;;;;;;;;;;5004507;28;20269;-51
2022/03/28 07:16:29;;;;;;;18.07;7.90;;;;;;;;;;5004644;28;20265;-50
2022/03/28 07:18:54;;;;;;;13.77;6.38;;;;;;;;;;5004283;28;20020;-50
2022/03/28 07:21:19;;;;;;;15.97;7.33;;;;;;;;;;5004257;28;20037;-51
2022/03/28 07:23:44;;;;;;;18.23;7.80;;;;;;;;;;4999298;28;20041;-50
2022/03/28 07:26:10;;;;;;;14.40;6.23;;;;;;;;;;5004724;28;20272;-52
2022/03/28 07:28:39;;;;;;;17.90;13.73;;;;;;;;;;5004801;28;20276;-51
2022/03/28 07:31:05;;;;;;;14.23;6.15;;;;;;;;;;5004567;28;20296;-51
2022/03/28 07:33:30;;;;;;;16.70;6.40;;;;;;;;;;5004835;28;20032;-51
2022/03/28 07:35:55;;;;;;;13.20;7.10;;;;;;;;;;5004621;28;20018;-51
2022/03/28 07:38:20;;;;;;;14.80;7.32;;;;;;;;;;4986683;28;20021;-51
2022/03/28 07:40:46;;;;;;;13.20;6.27;;;;;;;;;;5005435;28;20642;-50
2022/03/28 07:43:12;;;;;;;15.85;6.93;;;;;;;;;;5004895;28;20443;-51
2022/03/28 07:45:37;;;;;;;27.13;18.20;;;;;;;;;;5005203;28;20497;-50
2022/03/28 07:48:03;;;;;;;14.73;7.10;;;;;;;;;;5003910;28;20288;-51
2022/03/28 07:50:29;;;;;;;15.77;9.60;;;;;;;;;;4998897;28;20064;-51
2022/03/28 07:52:55;;;;;;;11.70;6.07;;;;;;;;;;5005591;28;20093;-52
2022/03/28 07:55:20;;;;;;;13.70;7.33;;;;;;;;;;5004845;28;20021;-51
2022/03/28 07:57:45;;;;;;;12.07;6.55;;;;;;;;;;4997204;28;20276;-51
2022/03/28 08:00:12;;;;;;;16.40;7.90;;;;;;;;;;5004158;28;20096;-51
2022/03/28 08:02:38;;;;;;;12.80;6.85;;;;;;;;;;5003995;28;20356;-51
2022/03/28 08:05:04;;;;;;;14.23;6.82;;;;;;;;;;5005374;28;20108;-50
2022/03/28 08:07:30;;;;;;;12.85;6.32;;;;;;;;;;5004883;28;20042;-51
2022/03/28 08:09:55;;;;;;;16.23;6.40;;;;;;;;;;5005190;28;20022;-51
2022/03/28 08:12:20;;;;;;;13.60;7.13;;;;;;;;;;5001910;28;20598;-51
2022/03/28 08:14:45;;;;;;;12.02;6.20;;;;;;;;;;5004724;28;20287;-51
2022/03/28 08:17:11;;;;;;;11.68;6.30;;;;;;;;;;5004907;28;20026;-51
2022/03/28 08:19:36;;;;;;;11.67;6.47;;;;;;;;;;5005040;28;20040;-51
2022/03/28 08:22:01;;;;;;;12.00;6.23;;;;;;;;;;5014839;28;20303;-50
2022/03/28 08:24:26;;;;;;;14.70;9.40;;;;;;;;;;5004499;28;20280;-50
2022/03/28 08:26:52;;;;;;;22.00;17.20;;;;;;;;;;5004871;28;20084;-50
2022/03/28 08:29:17;;;;;;;11.17;6.30;;;;;;;;;;5003838;28;20129;-50
2022/03/28 08:31:42;;;;;;;15.80;6.95;;;;;;;;;;5004534;28;20296;-50
2022/03/28 08:34:08;;;;;;;14.82;6.65;;;;;;;;;;5004708;28;20018;-50
2022/03/28 08:36:33;;;;;;;14.80;7.13;;;;;;;;;;5004680;28;20052;-51
2022/03/28 08:38:58;;;;;;;11.30;6.10;;;;;;;;;;5004621;28;20425;-50
2022/03/28 08:41:25;;;;;;;13.27;7.27;;;;;;;;;;5020920;28;20030;-50
2022/03/28 08:43:50;;;;;;;13.98;6.72;;;;;;;;;;5004242;28;20760;-50
2022/03/28 08:46:15;;;;;;;12.75;6.38;;;;;;;;;;5003273;28;20028;-50
2022/03/28 08:48:41;;;;;;;11.95;5.95;;;;;;;;;;5003922;28;20014;-50
2022/03/28 08:51:09;;;;;;;13.80;6.23;;;;;;;;;;5002658;28;20548;-51
2022/03/28 08:53:35;;;;;;;12.30;7.32;;;;;;;;;;4985252;28;20336;-50
2022/03/28 08:56:00;;;;;;;12.40;7.13;;;;;;;;;;5003380;28;20609;-50
2022/03/28 08:58:26;;;;;;;16.73;11.40;;;;;;;;;;5003314;28;20025;-51
2022/03/28 09:00:51;;;;;;;18.43;12.47;;;;;;;;;;5002900;28;20100;-51
2022/03/28 09:03:16;;;;;;;13.80;6.63;;;;;;;;;;5003202;28;21657;-50
2022/03/28 09:05:47;;;;;;;11.50;5.73;;;;;;;;;;5003053;28;20158;-50
2022/03/28 09:08:12;;;;;;;12.88;5.55;;;;;;;;;;5002632;28;20399;-50
2022/03/28 09:10:37;;;;;;;12.57;5.93;;;;;;;;;;5004100;28;20069;-51
2022/03/28 09:13:04;;;;;;;11.25;5.95;;;;;;;;;;5003385;28;20033;-50
2022/03/28 09:15:48;;;;;;;13.35;6.28;;;;;;;;;;5004016;28;20018;-50
2022/03/28 09:18:19;;;;;;;13.38;10.00;;;;;;;;;;5003909;28;20108;-50
2022/03/28 09:20:47;;;;;;;14.82;6.53;;;;;;;;;;5004086;28;20026;-53
2022/03/28 09:23:32;;;;;;;12.13;6.28;;;;;;;;;;5003059;28;20064;-52
2022/03/28 09:25:57;;;;;;;15.60;7.35;;;;;;;;;;5003581;28;20035;-52
2022/03/28 09:28:23;;;;;;;14.50;7.15;;;;;;;;;;5003229;28;20627;-52
2022/03/28 09:30:49;;;;;;;13.70;7.82;;;;;;;;;;5004374;28;20057;-52
2022/03/28 09:33:17;;;;;;;12.30;6.67;;;;;;;;;;5003509;28;20110;-54
2022/03/28 09:35:45;;;;;;;12.20;6.30;;;;;;;;;;5003844;28;20725;-52
2022/03/28 09:38:11;;;;;;;12.13;7.05;;;;;;;;;;5003481;28;20025;-53
2022/03/28 09:40:40;;;;;;;16.75;12.40;;;;;;;;;;5002864;28;20474;-51
2022/03/28 09:43:17;;;;;;;9.82;6.00;;;;;;;;;;5003550;28;20022;-51
2022/03/28 09:45:45;;;;;;;15.95;7.70;;;;;;;;;;5003460;28;20022;-52
2022/03/28 09:48:15;;;;;;;13.00;7.13;;;;;;;;;;4984304;28;20025;-51
2022/03/28 09:50:40;;;;;;;14.88;7.80;;;;;;;;;;5003028;28;20018;-51
2022/03/28 09:53:12;;;;;;;14.77;10.23;;;;;;;;;;5002660;28;20449;-51
2022/03/28 09:55:56;;;;;;;14.75;9.95;;;;;;;;;;5002376;28;20260;-52
2022/03/28 09:58:30;;;;;;;16.73;10.93;;;;;;;;;;5002449;28;20717;-53
2022/03/28 10:00:55;;;;;;;17.40;10.93;;;;;;;;;;5003091;28;20048;-50
2022/03/28 10:03:21;;;;;;;14.70;9.63;;;;;;;;;;5002060;28;20061;-51
2022/03/28 10:05:46;;;;;;;16.77;13.03;;;;;;;;;;5001250;28;20040;-50
2022/03/28 10:08:11;;;;;;;19.33;16.10;;;;;;;;;;5002119;28;20069;-51
2022/03/28 10:10:36;;;;;;;22.20;17.30;;;;;;;;;;5002316;28;20261;-51
2022/03/28 10:13:02;;;;;;;24.13;20.40;;;;;;;;;;4989336;28;20818;-51
2022/03/28 10:15:27;;;;;;;17.85;13.57;;;;;;;;;;4999334;28;20924;-52
2022/03/28 10:17:52;;;;;;;18.30;13.03;;;;;;;;;;5001085;28;20034;-52
2022/03/28 10:20:18;;;;;;;23.77;20.30;;;;;;;;;;5000100;28;20507;-50
2022/03/28 10:22:43;;;;;;;12.57;7.33;;;;;;;;;;5002764;28;20545;-51
2022/03/28 10:25:09;;;;;;;15.93;10.10;;;;;;;;;;4983897;28;20408;-50
2022/03/28 10:27:34;;;;;;;19.35;14.75;;;;;;;;;;5004522;28;20029;-51
2022/03/28 10:30:09;;;;;;;16.27;14.00;;;;;;;;;;4985007;28;20219;-51
2022/03/28 10:32:35;;;;;;;15.77;8.23;;;;;;;;;;5002253;28;20033;-51
2022/03/28 10:35:04;;;;;;;18.13;8.85;;;;;;;;;;4998142;28;20084;-51
2022/03/28 10:37:32;;;;;;;15.23;8.15;;;;;;;;;;4999508;28;20029;-51
2022/03/28 10:40:13;;;;;;;14.35;7.25;;;;;;;;;;5002865;28;20108;-52
2022/03/28 10:42:43;;;;;;;15.18;9.88;;;;;;;;;;5001965;28;20034;-51
2022/03/28 10:45:08;;;;;;;14.80;9.82;;;;;;;;;;5000161;28;20022;-51
2022/03/28 10:47:44;;;;;;;14.95;10.23;;;;;;;;;;5001960;28;20394;-52
2022/03/28 10:50:10;;;;;;;15.70;10.48;;;;;;;;;;5002340;28;20053;-51
2022/03/28 10:52:35;;;;;;;18.30;14.05;;;;;;;;;;5002419;28;20864;-52
2022/03/28 10:55:09;;;;;;;16.63;12.48;;;;;;;;;;5002314;28;20026;-52
2022/03/28 10:57:34;;;;;;;21.40;16.85;;;;;;;;;;4986244;28;20105;-52
2022/03/28 11:00:08;;;;;;;18.83;15.57;;;;;;;;;;5001727;28;20117;-51
2022/03/28 11:02:33;;;;;;;19.38;10.02;;;;;;;;;;5001571;28;20030;-51
2022/03/28 11:05:05;;;;;;;22.23;18.33;;;;;;;;;;5004347;28;20022;-52
2022/03/28 11:07:30;;;;;;;17.83;12.73;;;;;;;;;;5001056;28;20104;-51
2022/03/28 11:10:05;;;;;;;13.02;8.07;;;;;;;;;;5001054;28;20482;-51
2022/03/28 11:12:32;;;;;;;30.35;27.25;;;;;;;;;;5000984;28;20030;-50
2022/03/28 11:15:15;;;;;;;36.30;32.45;;;;;;;;;;5000733;28;20409;-51
2022/03/28 11:17:59;;;;;;;17.42;14.60;;;;;;;;;;5000234;28;20095;-52
2022/03/28 11:20:25;;;;;;;14.80;9.98;;;;;;;;;;5002287;28;20026;-53
2022/03/28 11:23:06;;;;;;;16.73;12.65;;;;;;;;;;4983747;28;20037;-53
2022/03/28 11:25:32;;;;;;;17.40;11.52;;;;;;;;;;5000295;28;20453;-52
2022/03/28 11:28:04;;;;;;;17.60;14.27;;;;;;;;;;5000920;28;20025;-52
2022/03/28 11:30:29;;;;;;;22.13;19.98;;;;;;;;;;5000714;28;20040;-51
2022/03/28 11:32:54;;;;;;;14.63;9.32;;;;;;;;;;5000712;28;20632;-52
2022/03/28 11:35:20;;;;;;;15.10;12.07;;;;;;;;;;5000711;28;20025;-51
2022/03/28 11:37:45;;;;;;;18.15;15.63;;;;;;;;;;5004038;28;20033;-52
2022/03/28 11:40:10;;;;;;;24.63;22.33;;;;;;;;;;4986918;28;20033;-50
2022/03/28 11:42:36;;;;;;;28.60;25.65;;;;;;;;;;5004711;28;20025;-51
2022/03/28 11:45:05;;;;;;;19.20;14.90;;;;;;;;;;5004936;28;20030;-51
2022/03/28 11:47:31;;;;;;;19.38;17.35;;;;;;;;;;5003132;28;20502;-52
2022/03/28 11:50:00;;;;;;;17.20;15.17;;;;;;;;;;5004737;28;20022;-52
2022/03/28 11:52:26;;;;;;;14.48;9.20;;;;;;;;;;4986992;28;20312;-52
2022/03/28 11:54:52;;;;;;;23.48;21.08;;;;;;;;;;4986997;28;20018;-51
2022/03/28 12:00:18;;;;;;;16.08;14.30;;;;;;;;;;5004722;28;20427;-52
2022/03/28 12:02:56;;;;;;;22.15;19.90;;;;;;;;;;5004833;28;20041;-53
2022/03/28 12:05:30;;;;;;;15.63;11.68;;;;;;;;;;5005310;28;20030;-52
2022/03/28 12:07:56;;;;;;;23.25;20.98;;;;;;;;;;5005981;28;20053;-53
2022/03/28 12:10:25;;;;;;;20.70;18.58;;;;;;;;;;5006892;28;20504;-53
2022/03/28 12:12:50;;;;;;;18.48;16.50;;;;;;;;;;5007012;28;20044;-51
2022/03/28 12:15:25;;;;;;;17.58;12.48;;;;;;;;;;4988616;28;20064;-51
2022/03/28 12:17:53;;;;;;;15.50;11.43;;;;;;;;;;4988908;28;20033;-53
2022/03/28 12:20:20;;;;;;;14.80;10.85;;;;;;;;;;5016616;28;20029;-51
2022/03/28 12:22:46;;;;;;;19.38;13.75;;;;;;;;;;5013091;28;20108;-52
2022/03/28 12:25:27;;;;;;;13.02;8.38;;;;;;;;;;5005449;28;20037;-52
2022/03/28 12:27:57;;;;;;;15.27;9.32;;;;;;;;;;5006698;28;20022;-52
2022/03/28 12:30:32;;;;;;;17.63;15.67;;;;;;;;;;4987669;28;20791;-51
2022/03/28 12:32:57;;;;;;;12.98;6.43;;;;;;;;;;5004268;28;20060;-51
2022/03/28 12:35:23;;;;;;;18.58;15.82;;;;;;;;;;5003420;28;20022;-52
2022/03/28 12:38:03;;;;;;;17.15;12.93;;;;;;;;;;5003849;28;20030;-52
2022/03/28 12:40:29;;;;;;;15.52;12.13;;;;;;;;;;5013836;28;20056;-52
2022/03/28 12:42:55;;;;;;;20.95;18.77;;;;;;;;;;4991270;28;20514;-52
2022/03/28 12:45:23;;;;;;;12.30;6.75;;;;;;;;;;5003352;28;20033;-52
2022/03/28 12:47:55;;;;;;;13.07;7.32;;;;;;;;;;5004938;28;20714;-52
2022/03/28 12:50:20;;;;;;;11.80;6.53;;;;;;;;;;5002334;28;20030;-51
2022/03/28 12:52:46;;;;;;;11.32;6.35;;;;;;;;;;5002359;28;20394;-51
2022/03/28 12:55:12;;;;;;;11.13;6.55;;;;;;;;;;5002417;28;20030;-51
2022/03/28 12:57:39;;;;;;;11.82;6.63;;;;;;;;;;5001401;28;20030;-52
2022/03/28 13:00:05;;;;;;;12.88;6.90;;;;;;;;;;5002356;28;20021;-52
2022/03/28 13:02:30;;;;;;;11.40;7.50;;;;;;;;;;5001444;28;20518;-52
2022/03/28 13:04:56;;;;;;;15.27;11.90;;;;;;;;;;5003223;28;20087;-52
2022/03/28 13:07:24;;;;;;;16.30;14.17;;;;;;;;;;5002994;28;20652;-53
2022/03/28 13:10:02;;;;;;;13.57;11.57;;;;;;;;;;5002355;28;20277;-51
2022/03/28 13:12:35;;;;;;;14.23;11.88;;;;;;;;;;4985589;28;20104;-52
2022/03/28 13:15:00;;;;;;;13.70;12.23;;;;;;;;;;5003128;28;20113;-53
2022/03/28 13:17:25;;;;;;;18.90;15.83;;;;;;;;;;4985795;28;20105;-51
2022/03/28 13:19:57;;;;;;;14.07;10.83;;;;;;;;;;5002958;28;20264;-52
2022/03/28 13:22:25;;;;;;;14.25;11.55;;;;;;;;;;5003070;28;20273;-53
2022/03/28 13:24:51;;;;;;;11.50;7.22;;;;;;;;;;5003001;28;20030;-52
2022/03/28 13:30:00;;;;;;;11.82;6.95;;;;;;;;;;5003561;28;20088;-51
2022/03/28 13:32:25;;;;;;;11.57;7.55;;;;;;;;;;4985197;28;20045;-51
2022/03/28 13:34:51;;;;;;;12.68;7.93;;;;;;;;;;5003095;28;20096;-53
2022/03/28 13:37:22;;;;;;;14.07;8.53;;;;;;;;;;5003060;28;20052;-53
2022/03/28 13:39:47;;;;;;;12.10;7.20;;;;;;;;;;5006324;28;20351;-52
2022/03/28 13:42:13;;;;;;;11.60;6.90;;;;;;;;;;5014654;28;20454;-52
2022/03/28 13:44:39;;;;;;;11.88;8.02;;;;;;;;;;5002961;28;20022;-52
2022/03/28 13:47:05;;;;;;;10.75;6.25;;;;;;;;;;5002173;28;20014;-52
2022/03/28 13:49:30;;;;;;;11.60;9.73;;;;;;;;;;5001552;28;20026;-52
2022/03/28 13:51:55;;;;;;;11.23;6.50;;;;;;;;;;5002782;28;20061;-52
2022/03/28 13:54:22;;;;;;;11.45;8.80;;;;;;;;;;5002854;28;20267;-52
2022/03/28 13:56:47;;;;;;;11.30;7.18;;;;;;;;;;5003066;28;20113;-52
2022/03/28 13:59:12;;;;;;;11.10;7.00;;;;;;;;;;5002323;28;20565;-51
2022/03/28 14:01:38;;;;;;;9.33;6.37;;;;;;;;;;5006715;28;20339;-52
2022/03/28 14:04:07;;;;;;;11.23;8.25;;;;;;;;;;5002963;28;20269;-52
2022/03/28 14:06:33;;;;;;;10.45;6.93;;;;;;;;;;5002149;28;20095;-51
2022/03/28 14:08:58;;;;;;;10.55;6.05;;;;;;;;;;5002548;28;20049;-50
2022/03/28 14:11:23;;;;;;;12.77;6.73;;;;;;;;;;4984818;28;20034;-52
2022/03/28 14:13:49;;;;;;;14.35;8.48;;;;;;;;;;5002933;28;20037;-50
2022/03/28 14:16:16;;;;;;;12.10;7.85;;;;;;;;;;5001847;28;20176;-51
2022/03/28 14:18:41;;;;;;;13.45;7.20;;;;;;;;;;5002164;28;20053;-51
2022/03/28 14:21:06;;;;;;;10.77;6.28;;;;;;;;;;5003110;28;20824;-50
2022/03/28 14:23:31;;;;;;;10.83;7.53;;;;;;;;;;5001276;28;20108;-51
2022/03/28 14:25:58;;;;;;;9.67;5.20;;;;;;;;;;5001386;28;20268;-51